Robertsport/Cape Mount Airport

Jump to: basic info | weather | comments

Related pages: nearby airports | nearby navaids | notams | map

Basic information (top)

Codes: GLCM
Location: lon 6.800000, lat -11.367000, elev 10 ft / 3 m msl
Status: small_airport

Weather (top)

Current conditions for Roberts International Airport 69nm (128km) ESE (rec'd 2014/11/26 07:00Z):

GLRB 260700Z 00000KT 9999 FEW011 SCT100 24/23 Q1012 NOSIG

Airport forecast for Roberts International Airport 69nm (128km) ESE (rec'd 2014/11/26 06:54Z):

TAF TAF GLRB 260400Z 2606/2712 26010KT 9000 SCT013 FEW024CB 
      TEMPO 2607/2611 24008KT 6000 RA/TSRA SCT003 BKN016 FEW026CB 
     FM261200 23010KT 9999 BKN017 FEW028CB 
      TEMPO 2617/2621 25006KT 9999 BKN015 FEW024CB

Latest comments (top)

No comments yet for Robertsport/Cape Mount Airport

More... (top)

See also NOTAMs and nearby airports and navaids, or visit the Robertsport/Cape Mount Airport page at the main OurAirports website..